createdAt,value
2022-09-14T00:01:21.074Z,99.65
2022-09-14T00:01:57.871Z,98.44
2022-09-14T00:02:57.818Z,97.94
2022-09-14T00:03:57.685Z,97.89
2022-09-14T00:04:57.705Z,98.24
2022-09-14T00:05:57.647Z,97.89
2022-09-14T00:06:57.661Z,97.64
2022-09-14T00:07:57.631Z,97.64
2022-09-14T00:08:57.623Z,97.64
2022-09-14T00:09:57.624Z,97.84
2022-09-14T00:10:57.631Z,98.65
2022-09-14T00:11:57.595Z,98.54
2022-09-14T00:12:57.586Z,98.54
2022-09-14T00:13:58.400Z,98.54
2022-09-14T00:14:57.577Z,98.54
2022-09-14T00:15:57.543Z,98.65
2022-09-14T00:16:57.588Z,98.24
2022-09-14T00:17:57.517Z,98.54
2022-09-14T00:18:57.521Z,98.24
2022-09-14T00:19:57.532Z,98.65
2022-09-14T00:20:58.006Z,98.65
2022-09-14T00:21:57.648Z,98.44
2022-09-14T00:22:58.617Z,98.04
2022-09-14T00:23:57.493Z,97.94
2022-09-14T00:24:57.468Z,98.44
2022-09-14T00:25:57.457Z,98.94
2022-09-14T00:26:57.477Z,98.54
2022-09-14T00:27:57.415Z,98.04
2022-09-14T00:28:57.432Z,97.64
2022-09-14T00:29:57.393Z,98.04
2022-09-14T00:30:57.387Z,98.24
2022-09-14T00:31:58.081Z,97.74
2022-09-14T00:32:57.369Z,97.84
2022-09-14T00:33:57.375Z,97.53
2022-09-14T00:34:57.380Z,97.53
2022-09-14T00:35:57.368Z,97.64
2022-09-14T00:36:57.326Z,97.84
2022-09-14T00:37:57.342Z,97.24
2022-09-14T00:38:57.320Z,97.13
2022-09-14T00:39:57.341Z,97.13
2022-09-14T00:40:57.322Z,97.33
2022-09-14T00:41:57.293Z,97.44
2022-09-14T00:42:57.274Z,97.53
2022-09-14T00:43:57.253Z,97.53
2022-09-14T00:44:57.253Z,97.53
2022-09-14T00:45:57.268Z,97.64
2022-09-14T00:46:57.227Z,97.44
2022-09-14T00:47:57.213Z,98.04
2022-09-14T00:48:57.236Z,98.34
2022-09-14T00:49:57.233Z,98.85
2022-09-14T00:50:57.191Z,98.85
2022-09-14T00:51:57.251Z,98.54
2022-09-14T00:52:57.185Z,98.14
2022-09-14T00:53:57.155Z,98.14
2022-09-14T00:54:58.026Z,98.14
2022-09-14T00:55:57.168Z,98.85
2022-09-14T00:56:57.156Z,99.25
2022-09-14T00:57:57.916Z,99.35
2022-09-14T00:58:57.113Z,99.55
2022-09-14T00:59:57.111Z,99.15
2022-09-14T01:00:57.149Z,99.25
2022-09-14T01:01:57.179Z,99.45
2022-09-14T01:02:57.104Z,99.45
2022-09-14T01:03:57.083Z,99.65
2022-09-14T01:04:57.041Z,99.85
2022-09-14T01:05:57.031Z,99.95
2022-09-14T01:06:57.040Z,99.35
2022-09-14T01:07:57.048Z,99.45
2022-09-14T01:08:57.043Z,98.65
2022-09-14T01:09:57.009Z,99.45
2022-09-14T01:10:56.978Z,99.25
2022-09-14T01:11:56.972Z,98.94
2022-09-14T01:12:56.985Z,99.35
2022-09-14T01:13:56.952Z,99.45
2022-09-14T01:14:56.985Z,99.35
2022-09-14T01:15:57.022Z,99.45
2022-09-14T01:16:57.008Z,99.99
2022-09-14T01:17:56.913Z,99.99
2022-09-14T01:18:56.921Z,99.99
2022-09-14T01:19:57.073Z,99.99
2022-09-14T01:20:56.874Z,99.80
2022-09-14T01:21:56.868Z,99.60
2022-09-14T01:22:56.870Z,99.80
2022-09-14T01:23:56.854Z,99.99
2022-09-14T01:24:56.826Z,99.99
2022-09-14T01:25:57.045Z,99.99
2022-09-14T01:26:56.850Z,99.99
2022-09-14T01:27:57.049Z,99.99
2022-09-14T01:28:56.797Z,99.99
2022-09-14T01:29:56.792Z,99.99
2022-09-14T01:30:56.771Z,99.99
2022-09-14T01:31:56.834Z,99.99
2022-09-14T01:32:56.760Z,99.99
2022-09-14T01:33:56.748Z,99.99
2022-09-14T01:34:56.743Z,99.99
2022-09-14T01:35:56.749Z,99.99
2022-09-14T01:36:56.705Z,99.99
2022-09-14T01:37:56.761Z,99.99
2022-09-14T01:38:56.718Z,99.99
2022-09-14T01:39:56.707Z,99.99
2022-09-14T01:40:56.675Z,99.99
2022-09-14T01:41:56.684Z,99.99
2022-09-14T01:42:56.684Z,99.99
2022-09-14T01:43:56.644Z,99.99
2022-09-14T01:44:56.641Z,99.99
2022-09-14T01:45:56.705Z,99.99
2022-09-14T01:46:56.621Z,99.99
2022-09-14T01:47:56.617Z,99.99
2022-09-14T01:48:56.605Z,99.99
2022-09-14T01:49:56.651Z,99.99
2022-09-14T01:50:56.574Z,99.99
2022-09-14T01:51:56.551Z,99.99
2022-09-14T01:52:56.575Z,99.99
2022-09-14T01:53:56.546Z,99.99
2022-09-14T01:54:56.538Z,99.99
2022-09-14T01:55:56.526Z,99.99
2022-09-14T01:56:56.577Z,99.99
2022-09-14T01:57:56.546Z,99.99
2022-09-14T01:58:56.576Z,99.99
2022-09-14T01:59:56.490Z,99.99
2022-09-14T02:00:56.503Z,99.99
2022-09-14T02:01:56.553Z,99.99
2022-09-14T02:02:56.453Z,99.99
2022-09-14T02:03:56.420Z,99.99
2022-09-14T02:04:56.435Z,99.99
2022-09-14T02:05:56.430Z,99.99
2022-09-14T02:06:56.408Z,99.99
2022-09-14T02:07:56.445Z,99.99
2022-09-14T02:08:56.382Z,99.99
2022-09-14T02:09:56.372Z,99.99
2022-09-14T02:10:56.366Z,99.99
2022-09-14T02:11:56.410Z,99.99
2022-09-14T02:12:56.377Z,99.99
2022-09-14T02:13:56.345Z,99.99
2022-09-14T02:14:56.310Z,99.99
2022-09-14T02:15:56.389Z,99.99
2022-09-14T02:16:56.300Z,99.99
2022-09-14T02:17:56.316Z,99.99
2022-09-14T02:18:56.330Z,99.99
2022-09-14T02:19:56.262Z,99.99
2022-09-14T02:20:56.250Z,99.99
2022-09-14T02:21:56.243Z,99.99
2022-09-14T02:22:56.255Z,99.99
2022-09-14T02:23:56.254Z,99.99
2022-09-14T02:24:56.223Z,99.99
2022-09-14T02:25:56.229Z,99.99
2022-09-14T02:26:56.220Z,99.99
2022-09-14T02:27:56.186Z,99.99
2022-09-14T02:28:56.197Z,99.99
2022-09-14T02:29:56.180Z,99.99
2022-09-14T02:30:56.187Z,99.99
2022-09-14T02:31:56.263Z,99.99
2022-09-14T02:32:56.143Z,99.99
2022-09-14T02:33:56.120Z,99.99
2022-09-14T02:34:56.165Z,99.99
2022-09-14T02:35:56.115Z,99.99
2022-09-14T02:36:56.079Z,99.99
2022-09-14T02:37:56.077Z,99.99
2022-09-14T02:38:56.082Z,99.99
2022-09-14T02:39:56.114Z,99.99
2022-09-14T02:40:56.131Z,99.99
2022-09-14T02:41:56.060Z,99.99
2022-09-14T02:42:56.049Z,99.99
2022-09-14T02:43:56.017Z,99.99
2022-09-14T02:44:56.023Z,99.99
2022-09-14T02:45:56.006Z,99.99
2022-09-14T02:46:56.100Z,99.99
2022-09-14T02:47:55.989Z,99.99
2022-09-14T02:48:55.962Z,99.99
2022-09-14T02:49:56.017Z,99.99
2022-09-14T02:50:55.966Z,99.99
2022-09-14T02:51:55.943Z,99.99
2022-09-14T02:52:55.934Z,99.99
2022-09-14T02:53:55.908Z,99.99
2022-09-14T02:54:55.901Z,99.99
2022-09-14T02:55:55.893Z,99.99
2022-09-14T02:56:55.914Z,99.99
2022-09-14T02:57:55.865Z,99.99
2022-09-14T02:58:55.867Z,99.99
2022-09-14T02:59:55.877Z,99.99
2022-09-14T03:00:55.886Z,99.99
2022-09-14T03:01:55.903Z,99.99
2022-09-14T03:02:55.832Z,99.99
2022-09-14T03:03:55.815Z,99.99
2022-09-14T03:04:55.808Z,99.99
2022-09-14T03:05:55.779Z,99.99
2022-09-14T03:06:55.808Z,99.99
2022-09-14T03:07:55.801Z,99.99
2022-09-14T03:08:55.853Z,99.99
2022-09-14T03:09:55.767Z,99.99
2022-09-14T03:10:55.752Z,99.99
2022-09-14T03:11:55.735Z,99.99
2022-09-14T03:12:55.736Z,99.99
2022-09-14T03:13:55.692Z,99.99
2022-09-14T03:14:55.729Z,99.99
2022-09-14T03:15:55.730Z,99.99
2022-09-14T03:16:55.657Z,99.99
2022-09-14T03:17:55.666Z,99.99
2022-09-14T03:18:55.655Z,99.99
2022-09-14T03:19:55.642Z,99.99
2022-09-14T03:20:55.656Z,99.99
2022-09-14T03:21:55.605Z,99.99
2022-09-14T03:22:55.603Z,99.99
2022-09-14T03:23:55.591Z,99.99
2022-09-14T03:24:55.634Z,99.99
2022-09-14T03:25:55.582Z,99.99
2022-09-14T03:26:55.561Z,99.99
2022-09-14T03:27:55.543Z,99.99
2022-09-14T03:28:55.553Z,99.99
2022-09-14T03:29:55.588Z,99.99
2022-09-14T03:30:55.582Z,99.99
2022-09-14T03:31:55.546Z,99.99
2022-09-14T03:32:55.501Z,99.99
2022-09-14T03:33:55.486Z,99.99
2022-09-14T03:34:55.540Z,99.99
2022-09-14T03:35:55.469Z,99.99
2022-09-14T03:36:55.492Z,99.99
2022-09-14T03:37:55.442Z,99.99
2022-09-14T03:38:55.438Z,99.99
2022-09-14T03:39:55.476Z,99.99
2022-09-14T03:40:55.410Z,99.99
2022-09-14T03:41:55.414Z,99.99
2022-09-14T03:42:55.407Z,99.99
2022-09-14T03:43:55.396Z,99.99
2022-09-14T03:44:55.421Z,99.99
2022-09-14T03:45:55.391Z,99.99
2022-09-14T03:46:55.402Z,99.99
2022-09-14T03:47:55.344Z,99.99
2022-09-14T03:48:55.325Z,99.99
2022-09-14T03:49:55.311Z,99.99
2022-09-14T03:50:55.302Z,99.99
2022-09-14T03:51:59.673Z,99.99
2022-09-14T03:52:55.308Z,99.99
2022-09-14T03:53:55.278Z,99.99
2022-09-14T03:54:55.271Z,99.99
2022-09-14T03:55:55.262Z,99.99
2022-09-14T03:56:55.277Z,99.99
2022-09-14T03:57:55.237Z,99.99
2022-09-14T03:58:55.226Z,99.99
2022-09-14T03:59:55.227Z,99.99
2022-09-14T04:00:55.201Z,99.99
2022-09-14T04:01:55.293Z,99.99
2022-09-14T04:02:55.293Z,99.99
2022-09-14T04:03:55.172Z,99.99
2022-09-14T04:04:55.176Z,99.99
2022-09-14T04:05:55.181Z,99.99
2022-09-14T04:06:55.169Z,99.99
2022-09-14T04:07:55.172Z,99.99
2022-09-14T04:08:55.158Z,99.99
2022-09-14T04:09:55.101Z,99.99
2022-09-14T04:10:55.103Z,99.99
2022-09-14T04:11:55.090Z,99.99
2022-09-14T04:12:55.127Z,99.99
2022-09-14T04:13:55.096Z,99.99
2022-09-14T04:14:55.138Z,99.99
2022-09-14T04:15:55.151Z,99.99
2022-09-14T04:16:55.069Z,99.99
2022-09-14T04:17:55.096Z,99.99
2022-09-14T04:18:55.104Z,99.99
2022-09-14T04:19:55.008Z,99.99
2022-09-14T04:20:55.000Z,99.99
2022-09-14T04:21:55.021Z,99.99
2022-09-14T04:22:54.990Z,99.99
2022-09-14T04:24:55.015Z,99.99
2022-09-14T04:25:54.950Z,99.99
2022-09-14T04:26:54.939Z,99.99
2022-09-14T04:28:16.713Z,99.99
2022-09-14T04:28:54.945Z,99.99
2022-09-14T04:29:54.932Z,99.99
2022-09-14T04:30:54.977Z,99.99
2022-09-14T04:31:54.886Z,99.99
2022-09-14T04:32:54.898Z,99.99
2022-09-14T04:33:54.861Z,99.99
2022-09-14T04:34:54.881Z,99.99
2022-09-14T04:35:54.937Z,99.99
2022-09-14T04:36:54.861Z,99.99
2022-09-14T04:37:54.871Z,99.99
2022-09-14T04:38:54.855Z,99.99
2022-09-14T04:39:54.840Z,99.99
2022-09-14T04:40:54.804Z,99.99
2022-09-14T04:41:54.729Z,99.99
2022-09-14T04:42:54.810Z,99.99
2022-09-14T04:43:54.775Z,99.99
2022-09-14T04:44:54.750Z,99.99
2022-09-14T04:45:54.751Z,99.99
2022-09-14T04:46:54.841Z,99.99
2022-09-14T04:47:54.741Z,99.99
2022-09-14T04:48:54.708Z,99.99
2022-09-14T04:49:54.725Z,99.99
2022-09-14T04:50:54.693Z,99.99
2022-09-14T04:51:54.666Z,99.99
2022-09-14T04:52:54.624Z,99.99
2022-09-14T04:53:54.608Z,99.99
2022-09-14T04:54:54.620Z,99.99
2022-09-14T04:55:54.592Z,99.99
2022-09-14T04:56:54.658Z,99.99
2022-09-14T04:57:54.603Z,99.99
2022-09-14T04:58:54.553Z,99.99
2022-09-14T04:59:54.555Z,99.99
2022-09-14T05:00:54.537Z,99.99
2022-09-14T05:01:54.578Z,99.99
2022-09-14T05:02:54.585Z,99.99
2022-09-14T05:03:54.522Z,99.99
2022-09-14T05:04:54.524Z,99.99
2022-09-14T05:05:54.486Z,99.99
2022-09-14T05:06:54.499Z,99.99
2022-09-14T05:07:54.515Z,99.99
2022-09-14T05:08:54.462Z,99.99
2022-09-14T05:09:54.447Z,99.99
2022-09-14T05:10:54.450Z,99.99
2022-09-14T05:11:54.464Z,99.99
2022-09-14T05:12:54.448Z,99.99
2022-09-14T05:13:54.402Z,99.99
2022-09-14T05:14:54.397Z,99.99
2022-09-14T05:15:54.421Z,99.99
2022-09-14T05:16:54.412Z,99.99
2022-09-14T05:17:54.357Z,99.99
2022-09-14T05:18:54.377Z,99.99
2022-09-14T05:19:54.341Z,99.99
2022-09-14T05:20:54.328Z,99.99
2022-09-14T05:21:54.333Z,99.99
2022-09-14T05:22:54.316Z,99.99
2022-09-14T05:23:54.308Z,99.99
2022-09-14T05:24:54.300Z,99.99
2022-09-14T05:25:54.283Z,99.99
2022-09-14T05:26:58.176Z,99.99
2022-09-14T05:27:54.297Z,99.99
2022-09-14T05:28:54.285Z,99.99
2022-09-14T05:29:54.250Z,99.99
2022-09-14T05:30:54.335Z,99.99
2022-09-14T05:31:54.254Z,99.99
2022-09-14T05:32:57.539Z,99.99
2022-09-14T05:33:54.380Z,99.99
2022-09-14T05:34:54.193Z,99.99
2022-09-14T05:35:55.063Z,99.99
2022-09-14T05:36:54.221Z,99.99
2022-09-14T05:37:54.159Z,99.99
2022-09-14T05:38:54.149Z,99.99
2022-09-14T05:39:54.335Z,99.99
2022-09-14T05:40:54.138Z,99.99
2022-09-14T05:41:54.176Z,99.99
2022-09-14T05:42:54.146Z,99.99
2022-09-14T05:43:54.106Z,99.99
2022-09-14T05:44:54.162Z,99.99
2022-09-14T05:45:54.212Z,99.99
2022-09-14T05:46:54.216Z,99.99
2022-09-14T05:47:54.081Z,99.99
2022-09-14T05:48:54.083Z,99.99
2022-09-14T05:49:54.063Z,99.99
2022-09-14T05:50:54.026Z,99.99
2022-09-14T05:51:54.028Z,99.99
2022-09-14T05:52:54.031Z,99.99
2022-09-14T05:53:54.040Z,99.99
2022-09-14T05:54:53.998Z,99.99
2022-09-14T05:55:53.980Z,99.99
2022-09-14T05:56:53.964Z,99.99
2022-09-14T05:57:54.003Z,99.99
2022-09-14T05:58:54.007Z,99.99
2022-09-14T05:59:53.931Z,99.99
2022-09-14T06:00:53.970Z,99.99
2022-09-14T06:01:53.949Z,99.99
2022-09-14T06:02:53.911Z,99.99
2022-09-14T06:03:53.929Z,99.99
2022-09-14T06:04:53.932Z,99.99
2022-09-14T06:05:53.869Z,99.99
2022-09-14T06:07:14.913Z,99.99
2022-09-14T06:07:53.850Z,99.99
2022-09-14T06:08:53.863Z,99.99
2022-09-14T06:09:53.895Z,99.99
2022-09-14T06:10:53.834Z,99.99
2022-09-14T06:11:53.857Z,99.99
2022-09-14T06:12:55.553Z,99.99
2022-09-14T06:13:53.788Z,99.99
2022-09-14T06:14:53.801Z,99.99
2022-09-14T06:15:53.852Z,99.99
2022-09-14T06:16:53.778Z,99.99
2022-09-14T06:17:53.766Z,99.99
2022-09-14T06:18:53.742Z,99.99
2022-09-14T06:19:53.800Z,99.99
2022-09-14T06:20:53.750Z,99.99
2022-09-14T06:21:53.728Z,99.99
2022-09-14T06:22:53.724Z,99.99
2022-09-14T06:23:53.748Z,99.99
2022-09-14T06:24:53.702Z,99.99
2022-09-14T06:25:53.713Z,99.99
2022-09-14T06:26:53.671Z,99.99
2022-09-14T06:27:53.665Z,99.99
2022-09-14T06:28:53.658Z,99.99
2022-09-14T06:29:53.647Z,99.99
2022-09-14T06:30:53.698Z,99.99
2022-09-14T06:31:53.648Z,99.99
2022-09-14T06:32:53.617Z,99.99
2022-09-14T06:33:53.615Z,99.99
2022-09-14T06:34:53.585Z,99.99
2022-09-14T06:35:53.598Z,99.99
2022-09-14T06:36:53.602Z,99.99
2022-09-14T06:37:53.561Z,99.99
2022-09-14T06:38:53.799Z,99.99
2022-09-14T06:39:53.651Z,99.99
2022-09-14T06:40:53.515Z,99.99
2022-09-14T06:41:53.588Z,99.99
2022-09-14T06:42:53.514Z,99.99
2022-09-14T06:43:53.583Z,99.99
2022-09-14T06:44:53.552Z,99.99
2022-09-14T06:45:53.519Z,99.99
2022-09-14T06:46:53.475Z,99.99
2022-09-14T06:47:53.669Z,99.99
2022-09-14T06:48:53.435Z,99.99
2022-09-14T06:49:53.465Z,99.99
2022-09-14T06:50:53.431Z,99.99
2022-09-14T06:51:53.443Z,99.99
2022-09-14T06:52:53.388Z,99.99
2022-09-14T06:53:53.429Z,99.99
2022-09-14T06:54:53.430Z,99.99
2022-09-14T06:55:53.403Z,99.99
2022-09-14T06:56:53.409Z,99.99
2022-09-14T06:57:53.348Z,99.99
2022-09-14T06:58:53.348Z,99.99
2022-09-14T06:59:53.330Z,99.99
2022-09-14T07:00:53.336Z,99.99
2022-09-14T07:01:53.611Z,99.99
2022-09-14T07:02:55.626Z,99.99
2022-09-14T07:03:53.324Z,99.99
2022-09-14T07:04:53.289Z,99.99
2022-09-14T07:05:53.268Z,99.99
2022-09-14T07:06:53.240Z,99.99
2022-09-14T07:07:53.287Z,99.99
2022-09-14T07:08:53.306Z,99.99
2022-09-14T07:09:53.214Z,99.99
2022-09-14T07:10:53.287Z,99.99
2022-09-14T07:11:53.346Z,99.99
2022-09-14T07:12:53.296Z,99.99
2022-09-14T07:13:53.265Z,99.30
2022-09-14T07:14:53.161Z,99.10
2022-09-14T07:15:53.176Z,98.80
2022-09-14T07:16:53.150Z,99.10
2022-09-14T07:17:53.197Z,99.90
2022-09-14T07:18:53.117Z,99.51
2022-09-14T07:19:53.111Z,98.70
2022-09-14T07:20:53.113Z,99.30
2022-09-14T07:21:53.430Z,99.99
2022-09-14T07:22:53.220Z,99.80
2022-09-14T07:23:53.396Z,99.65
2022-09-14T07:24:53.253Z,99.99
2022-09-14T07:25:53.178Z,99.99
2022-09-14T07:26:53.043Z,99.99
2022-09-14T07:27:53.051Z,99.99
2022-09-14T07:28:53.049Z,99.99
2022-09-14T07:29:53.043Z,99.99
2022-09-14T07:30:56.999Z,99.55
2022-09-14T07:31:53.001Z,98.94
2022-09-14T07:32:52.990Z,98.44
2022-09-14T07:33:53.034Z,98.34
2022-09-14T07:34:52.960Z,98.74
2022-09-14T07:35:53.009Z,99.95
2022-09-14T07:36:52.930Z,99.99
2022-09-14T07:37:53.015Z,99.80
2022-09-14T07:38:53.562Z,99.99
2022-09-14T07:39:52.919Z,99.90
2022-09-14T07:40:52.900Z,98.80
2022-09-14T07:41:52.947Z,98.44
2022-09-14T07:42:57.315Z,99.35
2022-09-14T07:43:52.853Z,98.85
2022-09-14T07:44:52.857Z,99.25
2022-09-14T07:45:52.933Z,99.99
2022-09-14T07:46:52.853Z,99.85
2022-09-14T07:47:52.838Z,99.60
2022-09-14T07:48:52.851Z,99.99
2022-09-14T07:49:52.829Z,99.99
2022-09-14T07:50:52.773Z,99.99
2022-09-14T07:51:52.768Z,99.99
2022-09-14T07:52:52.790Z,99.99
2022-09-14T07:53:52.779Z,99.99
2022-09-14T07:54:52.755Z,99.51
2022-09-14T07:55:52.764Z,99.60
2022-09-14T07:56:52.708Z,99.10
2022-09-14T07:57:56.457Z,98.30
2022-09-14T07:58:54.772Z,97.99
2022-09-14T07:59:53.212Z,98.30
2022-09-14T08:00:52.737Z,98.70
2022-09-14T08:01:52.839Z,98.60
2022-09-14T08:02:52.759Z,99.10
2022-09-14T08:03:52.657Z,99.99
2022-09-14T08:04:52.685Z,99.90
2022-09-14T08:05:52.629Z,99.99
2022-09-14T08:06:52.606Z,99.99
2022-09-14T08:07:52.666Z,99.30
2022-09-14T08:08:52.585Z,99.90
2022-09-14T08:09:52.613Z,99.80
2022-09-14T08:10:52.567Z,99.99
2022-09-14T08:11:52.566Z,99.51
2022-09-14T08:12:52.538Z,98.90
2022-09-14T08:13:52.553Z,99.51
2022-09-14T08:14:52.575Z,99.80
2022-09-14T08:15:52.514Z,99.51
2022-09-14T08:16:52.594Z,99.30
2022-09-14T08:17:52.508Z,99.60
2022-09-14T08:18:52.564Z,99.60
2022-09-14T08:19:52.529Z,98.85
2022-09-14T08:20:52.460Z,97.95
2022-09-14T08:21:52.497Z,97.99
2022-09-14T08:22:52.439Z,97.55
2022-09-14T08:23:52.440Z,97.95
2022-09-14T08:24:52.958Z,98.35
2022-09-14T08:25:52.554Z,97.95
2022-09-14T08:26:52.416Z,97.85
2022-09-14T08:27:52.583Z,97.85
2022-09-14T08:28:52.612Z,97.75
2022-09-14T08:29:52.441Z,97.99
2022-09-14T08:30:52.341Z,97.69
2022-09-14T08:31:52.430Z,98.15
2022-09-14T08:32:52.332Z,98.30
2022-09-14T08:33:52.326Z,98.50
2022-09-14T08:34:52.335Z,98.19
2022-09-14T08:35:59.585Z,97.99
2022-09-14T08:36:52.298Z,98.80
2022-09-14T08:37:52.322Z,99.26
2022-09-14T08:38:52.302Z,98.55
2022-09-14T08:39:52.415Z,98.65
2022-09-14T08:40:52.475Z,98.95
2022-09-14T08:41:52.260Z,99.15
2022-09-14T08:42:52.222Z,98.75
2022-09-14T08:43:52.234Z,98.15
2022-09-14T08:44:52.261Z,98.75
2022-09-14T08:45:52.241Z,98.15
2022-09-14T08:46:52.190Z,98.65
2022-09-14T08:47:52.181Z,97.85
2022-09-14T08:48:52.258Z,98.35
2022-09-14T08:49:52.178Z,98.35
2022-09-14T08:50:52.134Z,98.25
2022-09-14T08:51:52.130Z,98.20
2022-09-14T08:52:52.133Z,98.40
2022-09-14T08:53:52.164Z,97.80
2022-09-14T08:54:52.133Z,97.90
2022-09-14T08:55:52.272Z,96.89
2022-09-14T08:56:52.099Z,96.69
2022-09-14T08:57:52.157Z,95.89
2022-09-14T08:58:52.077Z,95.54
2022-09-14T08:59:52.052Z,95.99
2022-09-14T09:00:52.179Z,96.25
2022-09-14T09:01:52.054Z,96.89
2022-09-14T09:02:52.007Z,96.35
2022-09-14T09:03:52.030Z,96.45
2022-09-14T09:04:52.024Z,96.69
2022-09-14T09:05:51.980Z,96.95
2022-09-14T09:06:51.994Z,96.75
2022-09-14T09:07:51.960Z,96.15
2022-09-14T09:08:51.997Z,95.75
2022-09-14T09:09:51.965Z,96.65
2022-09-14T09:10:51.937Z,96.45
2022-09-14T09:11:52.022Z,96.65
2022-09-14T09:12:51.942Z,96.45
2022-09-14T09:13:51.913Z,96.35
2022-09-14T09:14:51.896Z,95.80
2022-09-14T09:15:51.940Z,95.84
2022-09-14T09:16:51.869Z,95.95
2022-09-14T09:17:51.894Z,96.20
2022-09-14T09:18:51.840Z,96.80
2022-09-14T09:19:51.828Z,96.10
2022-09-14T09:20:51.847Z,95.70
2022-09-14T09:21:51.827Z,96.20
2022-09-14T09:22:51.878Z,96.10
2022-09-14T09:23:51.814Z,95.30
2022-09-14T09:24:51.796Z,95.70
2022-09-14T09:25:51.783Z,96.41
2022-09-14T09:26:51.775Z,96.30
2022-09-14T09:27:51.886Z,95.80
2022-09-14T09:28:51.754Z,95.10
2022-09-14T09:29:51.774Z,94.79
2022-09-14T09:30:51.768Z,96.30
2022-09-14T09:31:51.793Z,95.50
2022-09-14T09:32:51.714Z,95.40
2022-09-14T09:33:51.721Z,95.36
2022-09-14T09:34:51.694Z,95.55
2022-09-14T09:35:51.672Z,95.95
2022-09-14T09:36:52.747Z,94.85
2022-09-14T09:37:51.644Z,93.85
2022-09-14T09:38:51.652Z,94.05
2022-09-14T09:39:51.693Z,93.44
2022-09-14T09:40:51.622Z,93.35
2022-09-14T09:41:51.799Z,93.15
2022-09-14T09:42:51.595Z,93.44
2022-09-14T09:43:51.648Z,93.90
2022-09-14T09:44:51.607Z,93.00
2022-09-14T09:45:51.580Z,93.30
2022-09-14T09:46:51.657Z,93.00
2022-09-14T09:47:51.566Z,93.70
2022-09-14T09:48:51.612Z,93.30
2022-09-14T09:49:51.552Z,93.55
2022-09-14T09:50:51.546Z,94.35
2022-09-14T09:51:51.542Z,93.74
2022-09-14T09:52:51.550Z,93.15
2022-09-14T09:53:51.547Z,93.44
2022-09-14T09:54:51.479Z,93.74
2022-09-14T09:55:51.550Z,93.24
2022-09-14T09:56:51.453Z,94.25
2022-09-14T09:57:51.601Z,93.95
2022-09-14T09:58:51.443Z,94.35
2022-09-14T09:59:51.764Z,93.95
2022-09-14T10:00:51.462Z,93.85
2022-09-14T10:01:51.471Z,94.05
2022-09-14T10:02:51.405Z,94.15
2022-09-14T10:03:51.401Z,93.60
2022-09-14T10:04:51.466Z,92.80
2022-09-14T10:05:51.440Z,92.50
2022-09-14T10:06:51.382Z,92.00
2022-09-14T10:07:51.360Z,91.39
2022-09-14T10:08:51.347Z,92.10
2022-09-14T10:09:51.329Z,92.70
2022-09-14T10:10:51.329Z,93.10
2022-09-14T10:11:51.411Z,93.80
2022-09-14T10:12:51.280Z,93.00
2022-09-14T10:13:51.299Z,92.76
2022-09-14T10:14:51.263Z,91.65
2022-09-14T10:15:51.333Z,91.45
2022-09-14T10:16:51.253Z,90.55
2022-09-14T10:17:51.236Z,90.35
2022-09-14T10:18:51.473Z,90.89
2022-09-14T10:19:51.223Z,91.09
2022-09-14T10:20:51.411Z,90.99
2022-09-14T10:21:51.204Z,90.59
2022-09-14T10:22:51.188Z,90.39
2022-09-14T10:23:51.250Z,91.39
2022-09-14T10:24:51.200Z,91.30
2022-09-14T10:25:51.241Z,91.50
2022-09-14T10:26:51.183Z,92.44
2022-09-14T10:27:51.190Z,92.74
2022-09-14T10:28:51.137Z,93.50
2022-09-14T10:29:51.190Z,93.00
2022-09-14T10:30:51.327Z,92.70
2022-09-14T10:31:51.126Z,92.30
2022-09-14T10:32:51.106Z,92.30
2022-09-14T10:33:51.096Z,93.00
2022-09-14T10:34:51.167Z,92.40
2022-09-14T10:35:51.043Z,91.80
2022-09-14T10:36:51.042Z,92.50
2022-09-14T10:37:51.028Z,92.30
2022-09-14T10:38:51.049Z,92.50
2022-09-14T10:39:51.081Z,92.70
2022-09-14T10:40:51.049Z,93.20
2022-09-14T10:41:51.013Z,93.40
2022-09-14T10:42:51.004Z,93.10
2022-09-14T10:43:51.008Z,92.60
2022-09-14T10:44:50.994Z,92.90
2022-09-14T10:45:51.001Z,92.60
2022-09-14T10:46:51.000Z,93.30
2022-09-14T10:47:50.948Z,93.60
2022-09-14T10:48:50.966Z,93.00
2022-09-14T10:49:50.926Z,92.20
2022-09-14T10:50:51.026Z,92.46
2022-09-14T10:51:50.923Z,91.69
2022-09-14T10:52:50.933Z,91.75
2022-09-14T10:53:50.976Z,91.96
2022-09-14T10:54:50.867Z,91.55
2022-09-14T10:55:50.856Z,91.45
2022-09-14T10:56:51.032Z,91.25
2022-09-14T10:57:51.019Z,90.35
2022-09-14T10:58:50.953Z,90.75
2022-09-14T10:59:50.818Z,90.95
2022-09-14T11:00:50.862Z,91.55
2022-09-14T11:01:50.885Z,90.45
2022-09-14T11:02:51.030Z,91.96
2022-09-14T11:03:50.802Z,90.75
2022-09-14T11:04:50.765Z,90.95
2022-09-14T11:05:50.798Z,91.45
2022-09-14T11:06:50.768Z,91.55
2022-09-14T11:07:52.332Z,91.55
2022-09-14T11:08:50.746Z,91.15
2022-09-14T11:09:50.729Z,91.05
2022-09-14T11:10:50.799Z,90.95
2022-09-14T11:11:50.749Z,91.15
2022-09-14T11:12:50.674Z,91.45
2022-09-14T11:13:50.696Z,91.05
2022-09-14T11:14:50.703Z,91.85
2022-09-14T11:15:50.726Z,91.45
2022-09-14T11:16:50.786Z,91.55
2022-09-14T11:17:50.630Z,91.25
2022-09-14T11:18:50.724Z,90.95
2022-09-14T11:19:50.680Z,90.65
2022-09-14T11:20:50.621Z,90.65
2022-09-14T11:21:50.587Z,90.75
2022-09-14T11:22:50.573Z,91.05
2022-09-14T11:23:50.599Z,91.55
2022-09-14T11:24:50.590Z,91.55
2022-09-14T11:25:50.558Z,91.51
2022-09-14T11:26:50.560Z,91.51
2022-09-14T11:27:51.159Z,91.51
2022-09-14T11:28:50.530Z,91.01
2022-09-14T11:29:50.530Z,90.70
2022-09-14T11:30:50.566Z,91.20
2022-09-14T11:32:10.169Z,90.91
2022-09-14T11:32:50.500Z,90.91
2022-09-14T11:33:50.575Z,91.01
2022-09-14T11:34:50.518Z,90.70
2022-09-14T11:35:50.479Z,91.01
2022-09-14T11:36:50.463Z,90.50
2022-09-14T11:37:50.431Z,90.61
2022-09-14T11:38:50.415Z,90.31
2022-09-14T11:39:50.544Z,90.81
2022-09-14T11:40:50.389Z,90.91
2022-09-14T11:41:50.398Z,90.70
2022-09-14T11:42:50.404Z,90.50
2022-09-14T11:43:50.418Z,90.61
2022-09-14T11:44:50.472Z,90.61
2022-09-14T11:45:50.389Z,90.70
2022-09-14T11:46:50.531Z,90.91
2022-09-14T11:47:50.359Z,90.61
2022-09-14T11:48:50.462Z,91.91
2022-09-14T11:49:50.305Z,92.71
2022-09-14T11:50:50.317Z,92.21
2022-09-14T11:51:50.344Z,91.71
2022-09-14T11:52:50.319Z,90.70
2022-09-14T11:53:50.256Z,90.91
2022-09-14T11:54:50.258Z,90.50
2022-09-14T11:55:50.250Z,90.81
2022-09-14T11:56:50.233Z,90.56
2022-09-14T11:57:50.254Z,91.16
2022-09-14T11:58:50.269Z,91.36
2022-09-14T11:59:50.197Z,91.06
2022-09-14T12:00:50.196Z,90.26
2022-09-14T12:01:50.195Z,89.56
2022-09-14T12:02:50.211Z,88.86
2022-09-14T12:03:52.125Z,89.22
2022-09-14T12:04:50.328Z,89.52
2022-09-14T12:05:50.153Z,88.52
2022-09-14T12:06:50.169Z,88.42
2022-09-14T12:07:50.141Z,89.02
2022-09-14T12:08:50.144Z,88.62
2022-09-14T12:09:50.159Z,88.21
2022-09-14T12:10:50.131Z,88.21
2022-09-14T12:11:50.103Z,88.42
2022-09-14T12:12:50.071Z,88.62
2022-09-14T12:13:50.110Z,89.02
2022-09-14T12:14:50.043Z,89.32
2022-09-14T12:15:50.162Z,89.52
2022-09-14T12:16:50.029Z,89.62
2022-09-14T12:17:50.059Z,89.62
2022-09-14T12:18:50.074Z,89.62
2022-09-14T12:19:50.009Z,90.12
2022-09-14T12:20:50.005Z,90.42
2022-09-14T12:21:50.006Z,90.42
2022-09-14T12:22:50.407Z,90.77
2022-09-14T12:23:50.024Z,90.96
2022-09-14T12:24:49.974Z,91.56
2022-09-14T12:25:49.984Z,92.16
2022-09-14T12:26:49.931Z,92.86
2022-09-14T12:27:49.925Z,93.67
2022-09-14T12:28:49.911Z,93.57
2022-09-14T12:29:49.896Z,93.37
2022-09-14T12:30:49.919Z,93.77
2022-09-14T12:31:49.913Z,93.81
2022-09-14T12:32:49.880Z,94.21
2022-09-14T12:33:49.864Z,94.71
2022-09-14T12:34:49.862Z,94.62
2022-09-14T12:35:49.858Z,94.82
2022-09-14T12:36:49.839Z,94.47
2022-09-14T12:37:49.835Z,93.27
2022-09-14T12:38:49.923Z,94.47
2022-09-14T12:39:49.875Z,94.57
2022-09-14T12:40:49.801Z,93.97
2022-09-14T12:41:49.827Z,93.97
2022-09-14T12:42:49.761Z,94.77
2022-09-14T12:43:50.202Z,95.07
2022-09-14T12:44:49.772Z,95.27
2022-09-14T12:45:49.869Z,95.67
2022-09-14T12:46:49.783Z,95.37
2022-09-14T12:47:49.713Z,95.07
2022-09-14T12:48:49.792Z,95.27
2022-09-14T12:49:49.690Z,95.37
2022-09-14T12:50:49.689Z,94.47
2022-09-14T12:51:49.713Z,94.07
2022-09-14T12:52:49.742Z,93.87
2022-09-14T12:53:49.826Z,94.27